sensor_id;sensor_type;location;lat;lon;timestamp;P1;durP1;ratioP1;P2;durP2;ratioP2
71753;SDS011;59593;51.716;7.016;2023-03-01T00:03:29;9.67;;;7.20;;
71753;SDS011;59593;51.716;7.016;2023-03-01T00:05:55;9.23;;;6.63;;
71753;SDS011;59593;51.716;7.016;2023-03-01T00:08:24;10.63;;;7.37;;
71753;SDS011;59593;51.716;7.016;2023-03-01T00:10:59;10.47;;;6.67;;
71753;SDS011;59593;51.716;7.016;2023-03-01T00:13:46;10.50;;;7.27;;
71753;SDS011;59593;51.716;7.016;2023-03-01T00:16:17;8.27;;;6.70;;
71753;SDS011;59593;51.716;7.016;2023-03-01T00:18:48;9.87;;;6.77;;
71753;SDS011;59593;51.716;7.016;2023-03-01T00:21:15;8.20;;;6.70;;
71753;SDS011;59593;51.716;7.016;2023-03-01T00:23:41;9.73;;;6.63;;
71753;SDS011;59593;51.716;7.016;2023-03-01T00:26:08;10.27;;;6.97;;
71753;SDS011;59593;51.716;7.016;2023-03-01T00:28:35;9.80;;;7.20;;
71753;SDS011;59593;51.716;7.016;2023-03-01T00:31:05;8.00;;;6.60;;
71753;SDS011;59593;51.716;7.016;2023-03-01T00:33:36;9.80;;;7.23;;
71753;SDS011;59593;51.716;7.016;2023-03-01T00:36:02;8.33;;;6.50;;
71753;SDS011;59593;51.716;7.016;2023-03-01T00:38:28;7.10;;;6.37;;
71753;SDS011;59593;51.716;7.016;2023-03-01T00:40:54;9.60;;;6.93;;
71753;SDS011;59593;51.716;7.016;2023-03-01T00:43:22;8.27;;;7.17;;
71753;SDS011;59593;51.716;7.016;2023-03-01T00:45:48;9.57;;;6.77;;
71753;SDS011;59593;51.716;7.016;2023-03-01T00:48:14;8.30;;;6.80;;
71753;SDS011;59593;51.716;7.016;2023-03-01T00:50:42;10.57;;;6.70;;
71753;SDS011;59593;51.716;7.016;2023-03-01T00:53:08;9.23;;;6.83;;
71753;SDS011;59593;51.716;7.016;2023-03-01T00:55:33;10.30;;;7.40;;
71753;SDS011;59593;51.716;7.016;2023-03-01T00:58:01;9.50;;;7.40;;
71753;SDS011;59593;51.716;7.016;2023-03-01T01:00:27;9.37;;;7.17;;
71753;SDS011;59593;51.716;7.016;2023-03-01T01:02:52;12.13;;;7.20;;
71753;SDS011;59593;51.716;7.016;2023-03-01T01:05:18;8.37;;;6.80;;
71753;SDS011;59593;51.716;7.016;2023-03-01T01:07:46;9.53;;;6.93;;
71753;SDS011;59593;51.716;7.016;2023-03-01T01:10:12;8.67;;;6.70;;
71753;SDS011;59593;51.716;7.016;2023-03-01T01:12:45;9.07;;;6.53;;
71753;SDS011;59593;51.716;7.016;2023-03-01T01:15:11;8.60;;;6.60;;
71753;SDS011;59593;51.716;7.016;2023-03-01T01:17:39;7.93;;;6.40;;
71753;SDS011;59593;51.716;7.016;2023-03-01T01:20:05;8.53;;;6.67;;
71753;SDS011;59593;51.716;7.016;2023-03-01T01:22:32;11.47;;;7.20;;
71753;SDS011;59593;51.716;7.016;2023-03-01T01:24:58;13.73;;;6.87;;
71753;SDS011;59593;51.716;7.016;2023-03-01T01:27:23;8.27;;;6.57;;
71753;SDS011;59593;51.716;7.016;2023-03-01T01:29:49;9.17;;;6.80;;
71753;SDS011;59593;51.716;7.016;2023-03-01T01:32:14;10.60;;;7.13;;
71753;SDS011;59593;51.716;7.016;2023-03-01T01:34:40;10.57;;;6.60;;
71753;SDS011;59593;51.716;7.016;2023-03-01T01:37:05;10.43;;;6.40;;
71753;SDS011;59593;51.716;7.016;2023-03-01T01:39:33;8.77;;;7.13;;
71753;SDS011;59593;51.716;7.016;2023-03-01T01:41:59;9.00;;;6.50;;
71753;SDS011;59593;51.716;7.016;2023-03-01T01:44:27;9.00;;;6.87;;
71753;SDS011;59593;51.716;7.016;2023-03-01T01:52:11;8.30;;;7.00;;
71753;SDS011;59593;51.716;7.016;2023-03-01T01:54:51;8.80;;;7.57;;
71753;SDS011;59593;51.716;7.016;2023-03-01T01:57:28;11.40;;;7.10;;
71753;SDS011;59593;51.716;7.016;2023-03-01T02:00:00;10.67;;;7.17;;
71753;SDS011;59593;51.716;7.016;2023-03-01T02:02:32;9.93;;;7.30;;
71753;SDS011;59593;51.716;7.016;2023-03-01T02:05:01;9.87;;;7.27;;
71753;SDS011;59593;51.716;7.016;2023-03-01T02:07:35;11.37;;;7.73;;
71753;SDS011;59593;51.716;7.016;2023-03-01T02:10:03;11.00;;;7.93;;
71753;SDS011;59593;51.716;7.016;2023-03-01T02:12:29;9.37;;;7.70;;
71753;SDS011;59593;51.716;7.016;2023-03-01T02:14:55;10.10;;;7.63;;
71753;SDS011;59593;51.716;7.016;2023-03-01T02:17:21;10.43;;;7.60;;
71753;SDS011;59593;51.716;7.016;2023-03-01T02:22:35;11.17;;;7.20;;
71753;SDS011;59593;51.716;7.016;2023-03-01T02:30:18;9.83;;;6.97;;
71753;SDS011;59593;51.716;7.016;2023-03-01T02:32:44;8.53;;;6.73;;
71753;SDS011;59593;51.716;7.016;2023-03-01T02:35:12;9.80;;;7.53;;
71753;SDS011;59593;51.716;7.016;2023-03-01T02:37:40;8.87;;;7.30;;
71753;SDS011;59593;51.716;7.016;2023-03-01T02:40:08;10.93;;;7.07;;
71753;SDS011;59593;51.716;7.016;2023-03-01T02:42:41;10.37;;;7.30;;
71753;SDS011;59593;51.716;7.016;2023-03-01T02:45:16;9.60;;;7.37;;
71753;SDS011;59593;51.716;7.016;2023-03-01T02:47:42;9.10;;;7.13;;
71753;SDS011;59593;51.716;7.016;2023-03-01T02:50:39;8.27;;;6.73;;
71753;SDS011;59593;51.716;7.016;2023-03-01T02:53:32;9.20;;;7.23;;
71753;SDS011;59593;51.716;7.016;2023-03-01T02:56:05;9.77;;;7.80;;
71753;SDS011;59593;51.716;7.016;2023-03-01T02:58:37;10.83;;;7.43;;
71753;SDS011;59593;51.716;7.016;2023-03-01T03:01:11;10.60;;;7.43;;
71753;SDS011;59593;51.716;7.016;2023-03-01T03:03:38;12.10;;;7.60;;
71753;SDS011;59593;51.716;7.016;2023-03-01T03:06:04;11.33;;;8.13;;
71753;SDS011;59593;51.716;7.016;2023-03-01T03:08:30;9.87;;;7.53;;
71753;SDS011;59593;51.716;7.016;2023-03-01T03:10:55;9.60;;;7.57;;
71753;SDS011;59593;51.716;7.016;2023-03-01T03:13:21;10.70;;;7.87;;
71753;SDS011;59593;51.716;7.016;2023-03-01T03:15:47;11.43;;;7.80;;
71753;SDS011;59593;51.716;7.016;2023-03-01T03:18:14;10.77;;;8.00;;
71753;SDS011;59593;51.716;7.016;2023-03-01T03:20:41;10.13;;;7.50;;
71753;SDS011;59593;51.716;7.016;2023-03-01T03:23:08;8.57;;;7.13;;
71753;SDS011;59593;51.716;7.016;2023-03-01T03:25:34;9.67;;;8.03;;
71753;SDS011;59593;51.716;7.016;2023-03-01T03:28:02;10.57;;;7.47;;
71753;SDS011;59593;51.716;7.016;2023-03-01T03:30:34;10.03;;;7.73;;
71753;SDS011;59593;51.716;7.016;2023-03-01T03:33:01;10.03;;;7.60;;
71753;SDS011;59593;51.716;7.016;2023-03-01T03:35:29;10.37;;;7.77;;
71753;SDS011;59593;51.716;7.016;2023-03-01T03:37:57;9.03;;;7.40;;
71753;SDS011;59593;51.716;7.016;2023-03-01T03:40:28;8.93;;;7.07;;
71753;SDS011;59593;51.716;7.016;2023-03-01T03:42:59;9.17;;;7.87;;
71753;SDS011;59593;51.716;7.016;2023-03-01T03:45:24;11.93;;;7.70;;
71753;SDS011;59593;51.716;7.016;2023-03-01T03:47:50;8.70;;;7.20;;
71753;SDS011;59593;51.716;7.016;2023-03-01T03:50:16;8.97;;;7.20;;
71753;SDS011;59593;51.716;7.016;2023-03-01T03:52:42;11.03;;;8.33;;
71753;SDS011;59593;51.716;7.016;2023-03-01T03:55:09;9.57;;;7.33;;
71753;SDS011;59593;51.716;7.016;2023-03-01T03:57:39;11.30;;;8.27;;
71753;SDS011;59593;51.716;7.016;2023-03-01T04:00:07;11.50;;;8.60;;
71753;SDS011;59593;51.716;7.016;2023-03-01T04:02:47;12.47;;;8.33;;
71753;SDS011;59593;51.716;7.016;2023-03-01T04:05:13;9.80;;;7.50;;
71753;SDS011;59593;51.716;7.016;2023-03-01T04:07:41;12.27;;;8.03;;
71753;SDS011;59593;51.716;7.016;2023-03-01T04:10:08;12.20;;;8.17;;
71753;SDS011;59593;51.716;7.016;2023-03-01T04:12:36;10.03;;;7.70;;
71753;SDS011;59593;51.716;7.016;2023-03-01T04:15:02;8.87;;;7.63;;
71753;SDS011;59593;51.716;7.016;2023-03-01T04:17:37;12.30;;;8.00;;
71753;SDS011;59593;51.716;7.016;2023-03-01T04:20:11;11.70;;;8.07;;
71753;SDS011;59593;51.716;7.016;2023-03-01T04:22:39;10.40;;;7.90;;
71753;SDS011;59593;51.716;7.016;2023-03-01T04:25:05;12.83;;;8.07;;
71753;SDS011;59593;51.716;7.016;2023-03-01T04:27:33;11.33;;;7.80;;
71753;SDS011;59593;51.716;7.016;2023-03-01T04:29:59;11.57;;;8.27;;
71753;SDS011;59593;51.716;7.016;2023-03-01T04:32:25;9.97;;;7.60;;
71753;SDS011;59593;51.716;7.016;2023-03-01T04:34:51;11.50;;;7.93;;
71753;SDS011;59593;51.716;7.016;2023-03-01T04:37:16;9.57;;;7.73;;
71753;SDS011;59593;51.716;7.016;2023-03-01T04:39:42;10.03;;;8.17;;
71753;SDS011;59593;51.716;7.016;2023-03-01T04:42:16;11.70;;;8.37;;
71753;SDS011;59593;51.716;7.016;2023-03-01T04:44:43;11.23;;;8.37;;
71753;SDS011;59593;51.716;7.016;2023-03-01T04:47:09;10.23;;;8.67;;
71753;SDS011;59593;51.716;7.016;2023-03-01T04:49:35;13.77;;;9.00;;
71753;SDS011;59593;51.716;7.016;2023-03-01T04:52:00;11.90;;;9.50;;
71753;SDS011;59593;51.716;7.016;2023-03-01T04:54:32;13.10;;;9.27;;
71753;SDS011;59593;51.716;7.016;2023-03-01T04:57:00;12.57;;;9.73;;
71753;SDS011;59593;51.716;7.016;2023-03-01T04:59:26;14.77;;;10.20;;
71753;SDS011;59593;51.716;7.016;2023-03-01T05:01:52;13.93;;;10.13;;
71753;SDS011;59593;51.716;7.016;2023-03-01T05:04:22;14.33;;;10.60;;
71753;SDS011;59593;51.716;7.016;2023-03-01T05:06:48;12.37;;;9.60;;
71753;SDS011;59593;51.716;7.016;2023-03-01T05:09:15;12.73;;;9.70;;
71753;SDS011;59593;51.716;7.016;2023-03-01T05:11:40;13.20;;;9.30;;
71753;SDS011;59593;51.716;7.016;2023-03-01T05:14:06;11.90;;;8.80;;
71753;SDS011;59593;51.716;7.016;2023-03-01T05:16:32;13.67;;;9.27;;
71753;SDS011;59593;51.716;7.016;2023-03-01T05:18:58;16.90;;;10.30;;
71753;SDS011;59593;51.716;7.016;2023-03-01T05:21:25;32.77;;;13.67;;
71753;SDS011;59593;51.716;7.016;2023-03-01T05:23:51;24.93;;;13.10;;
71753;SDS011;59593;51.716;7.016;2023-03-01T05:26:17;29.23;;;13.60;;
71753;SDS011;59593;51.716;7.016;2023-03-01T05:28:46;28.00;;;14.00;;
71753;SDS011;59593;51.716;7.016;2023-03-01T05:31:12;24.80;;;13.33;;
71753;SDS011;59593;51.716;7.016;2023-03-01T05:33:39;24.07;;;13.23;;
71753;SDS011;59593;51.716;7.016;2023-03-01T05:36:06;28.33;;;16.10;;
71753;SDS011;59593;51.716;7.016;2023-03-01T05:38:33;51.60;;;27.37;;
71753;SDS011;59593;51.716;7.016;2023-03-01T05:40:59;44.07;;;24.80;;
71753;SDS011;59593;51.716;7.016;2023-03-01T05:43:25;30.23;;;17.93;;
71753;SDS011;59593;51.716;7.016;2023-03-01T05:45:50;32.07;;;19.13;;
71753;SDS011;59593;51.716;7.016;2023-03-01T05:48:16;34.03;;;19.47;;
71753;SDS011;59593;51.716;7.016;2023-03-01T05:50:44;35.50;;;21.00;;
71753;SDS011;59593;51.716;7.016;2023-03-01T05:53:16;48.13;;;27.03;;
71753;SDS011;59593;51.716;7.016;2023-03-01T05:55:43;48.30;;;26.57;;
71753;SDS011;59593;51.716;7.016;2023-03-01T05:58:11;37.07;;;22.70;;
71753;SDS011;59593;51.716;7.016;2023-03-01T06:00:39;22.70;;;15.53;;
71753;SDS011;59593;51.716;7.016;2023-03-01T06:03:05;17.23;;;11.97;;
71753;SDS011;59593;51.716;7.016;2023-03-01T06:05:35;13.63;;;9.93;;
71753;SDS011;59593;51.716;7.016;2023-03-01T06:08:01;14.33;;;10.43;;
71753;SDS011;59593;51.716;7.016;2023-03-01T06:10:27;12.67;;;9.67;;
71753;SDS011;59593;51.716;7.016;2023-03-01T06:12:53;13.03;;;9.83;;
71753;SDS011;59593;51.716;7.016;2023-03-01T06:15:19;13.87;;;10.37;;
71753;SDS011;59593;51.716;7.016;2023-03-01T06:17:45;12.23;;;9.67;;
71753;SDS011;59593;51.716;7.016;2023-03-01T06:20:18;14.13;;;10.17;;
71753;SDS011;59593;51.716;7.016;2023-03-01T06:22:45;13.47;;;9.20;;
71753;SDS011;59593;51.716;7.016;2023-03-01T06:25:12;15.13;;;8.97;;
71753;SDS011;59593;51.716;7.016;2023-03-01T06:27:40;10.20;;;8.40;;
71753;SDS011;59593;51.716;7.016;2023-03-01T06:30:12;14.13;;;9.87;;
71753;SDS011;59593;51.716;7.016;2023-03-01T06:32:40;17.33;;;11.57;;
71753;SDS011;59593;51.716;7.016;2023-03-01T06:35:12;16.37;;;11.17;;
71753;SDS011;59593;51.716;7.016;2023-03-01T06:37:45;19.30;;;11.70;;
71753;SDS011;59593;51.716;7.016;2023-03-01T06:40:12;15.83;;;11.50;;
71753;SDS011;59593;51.716;7.016;2023-03-01T06:42:39;13.93;;;11.03;;
71753;SDS011;59593;51.716;7.016;2023-03-01T06:45:06;12.97;;;10.03;;
71753;SDS011;59593;51.716;7.016;2023-03-01T06:47:34;18.70;;;10.37;;
71753;SDS011;59593;51.716;7.016;2023-03-01T06:50:00;17.60;;;10.33;;
71753;SDS011;59593;51.716;7.016;2023-03-01T06:52:26;15.70;;;10.13;;
71753;SDS011;59593;51.716;7.016;2023-03-01T06:54:52;14.57;;;9.80;;
71753;SDS011;59593;51.716;7.016;2023-03-01T06:57:18;13.57;;;9.70;;
71753;SDS011;59593;51.716;7.016;2023-03-01T06:59:43;16.00;;;10.23;;
71753;SDS011;59593;51.716;7.016;2023-03-01T07:02:10;12.67;;;9.40;;
71753;SDS011;59593;51.716;7.016;2023-03-01T07:04:36;14.93;;;10.17;;
71753;SDS011;59593;51.716;7.016;2023-03-01T07:07:02;15.50;;;10.90;;
71753;SDS011;59593;51.716;7.016;2023-03-01T07:09:28;15.50;;;10.60;;
71753;SDS011;59593;51.716;7.016;2023-03-01T07:11:54;18.53;;;12.10;;
71753;SDS011;59593;51.716;7.016;2023-03-01T07:14:19;17.20;;;11.73;;
71753;SDS011;59593;51.716;7.016;2023-03-01T07:16:45;16.33;;;12.70;;
71753;SDS011;59593;51.716;7.016;2023-03-01T07:19:11;17.13;;;12.63;;
71753;SDS011;59593;51.716;7.016;2023-03-01T07:21:37;20.27;;;13.20;;
71753;SDS011;59593;51.716;7.016;2023-03-01T07:24:04;17.27;;;11.50;;
71753;SDS011;59593;51.716;7.016;2023-03-01T07:26:31;13.73;;;10.40;;
71753;SDS011;59593;51.716;7.016;2023-03-01T07:28:58;12.70;;;10.00;;
71753;SDS011;59593;51.716;7.016;2023-03-01T07:31:24;12.20;;;8.97;;
71753;SDS011;59593;51.716;7.016;2023-03-01T07:33:52;10.57;;;8.57;;
71753;SDS011;59593;51.716;7.016;2023-03-01T07:36:18;14.20;;;9.80;;
71753;SDS011;59593;51.716;7.016;2023-03-01T07:38:44;12.50;;;9.43;;
71753;SDS011;59593;51.716;7.016;2023-03-01T07:41:10;13.03;;;9.20;;
71753;SDS011;59593;51.716;7.016;2023-03-01T07:43:35;13.27;;;9.10;;
71753;SDS011;59593;51.716;7.016;2023-03-01T07:46:01;13.60;;;8.30;;
71753;SDS011;59593;51.716;7.016;2023-03-01T07:48:27;11.07;;;8.47;;
71753;SDS011;59593;51.716;7.016;2023-03-01T07:50:53;12.67;;;8.80;;
71753;SDS011;59593;51.716;7.016;2023-03-01T07:53:19;10.07;;;8.10;;
71753;SDS011;59593;51.716;7.016;2023-03-01T07:55:44;11.17;;;8.10;;
71753;SDS011;59593;51.716;7.016;2023-03-01T07:58:10;9.70;;;7.90;;
71753;SDS011;59593;51.716;7.016;2023-03-01T08:00:35;12.17;;;7.90;;
71753;SDS011;59593;51.716;7.016;2023-03-01T08:03:01;13.17;;;8.43;;
71753;SDS011;59593;51.716;7.016;2023-03-01T08:05:35;13.33;;;7.83;;
71753;SDS011;59593;51.716;7.016;2023-03-01T08:08:11;11.67;;;7.97;;
71753;SDS011;59593;51.716;7.016;2023-03-01T08:11:18;10.93;;;8.27;;
71753;SDS011;59593;51.716;7.016;2023-03-01T08:14:05;10.87;;;8.10;;
71753;SDS011;59593;51.716;7.016;2023-03-01T08:19:45;11.63;;;8.27;;
71753;SDS011;59593;51.716;7.016;2023-03-01T08:22:11;10.80;;;8.00;;
71753;SDS011;59593;51.716;7.016;2023-03-01T08:24:37;11.07;;;8.20;;
71753;SDS011;59593;51.716;7.016;2023-03-01T08:27:02;13.07;;;8.67;;
71753;SDS011;59593;51.716;7.016;2023-03-01T08:29:41;10.07;;;7.77;;
71753;SDS011;59593;51.716;7.016;2023-03-01T08:32:16;12.97;;;8.70;;
71753;SDS011;59593;51.716;7.016;2023-03-01T08:34:43;12.40;;;8.30;;
71753;SDS011;59593;51.716;7.016;2023-03-01T08:37:11;12.40;;;8.23;;
71753;SDS011;59593;51.716;7.016;2023-03-01T08:39:37;10.43;;;8.30;;
71753;SDS011;59593;51.716;7.016;2023-03-01T08:42:03;10.97;;;8.40;;
71753;SDS011;59593;51.716;7.016;2023-03-01T08:44:32;13.03;;;8.50;;
71753;SDS011;59593;51.716;7.016;2023-03-01T08:46:58;10.53;;;7.47;;
71753;SDS011;59593;51.716;7.016;2023-03-01T08:49:27;11.57;;;7.60;;
71753;SDS011;59593;51.716;7.016;2023-03-01T08:51:53;11.60;;;7.50;;
71753;SDS011;59593;51.716;7.016;2023-03-01T08:54:20;10.17;;;7.40;;
71753;SDS011;59593;51.716;7.016;2023-03-01T08:56:46;12.33;;;8.27;;
71753;SDS011;59593;51.716;7.016;2023-03-01T08:59:16;10.90;;;7.93;;
71753;SDS011;59593;51.716;7.016;2023-03-01T09:01:43;10.10;;;7.67;;
71753;SDS011;59593;51.716;7.016;2023-03-01T09:04:12;10.93;;;7.67;;
71753;SDS011;59593;51.716;7.016;2023-03-01T09:06:39;11.37;;;7.63;;
71753;SDS011;59593;51.716;7.016;2023-03-01T09:09:10;11.30;;;7.73;;
71753;SDS011;59593;51.716;7.016;2023-03-01T09:12:19;9.63;;;7.43;;
71753;SDS011;59593;51.716;7.016;2023-03-01T09:21:47;8.20;;;6.87;;
71753;SDS011;59593;51.716;7.016;2023-03-01T09:24:20;12.50;;;7.70;;
71753;SDS011;59593;51.716;7.016;2023-03-01T09:27:05;11.47;;;7.53;;
71753;SDS011;59593;51.716;7.016;2023-03-01T09:29:47;9.90;;;7.20;;
71753;SDS011;59593;51.716;7.016;2023-03-01T09:35:39;11.13;;;7.80;;
71753;SDS011;59593;51.716;7.016;2023-03-01T09:38:41;10.63;;;7.50;;
71753;SDS011;59593;51.716;7.016;2023-03-01T09:43:44;11.30;;;7.10;;
71753;SDS011;59593;51.716;7.016;2023-03-01T09:46:15;9.63;;;7.07;;
71753;SDS011;59593;51.716;7.016;2023-03-01T09:51:30;9.47;;;7.30;;
71753;SDS011;59593;51.716;7.016;2023-03-01T09:54:01;10.90;;;7.30;;
71753;SDS011;59593;51.716;7.016;2023-03-01T09:56:36;11.40;;;7.23;;
71753;SDS011;59593;51.716;7.016;2023-03-01T10:10:46;8.33;;;6.07;;
71753;SDS011;59593;51.716;7.016;2023-03-01T10:13:15;7.67;;;5.47;;
71753;SDS011;59593;51.716;7.016;2023-03-01T10:15:55;10.53;;;6.27;;
71753;SDS011;59593;51.716;7.016;2023-03-01T10:18:27;8.60;;;6.33;;
71753;SDS011;59593;51.716;7.016;2023-03-01T10:21:00;9.23;;;6.47;;
71753;SDS011;59593;51.716;7.016;2023-03-01T10:23:28;8.40;;;5.53;;
71753;SDS011;59593;51.716;7.016;2023-03-01T10:28:57;9.10;;;6.53;;
71753;SDS011;59593;51.716;7.016;2023-03-01T10:31:43;9.73;;;6.57;;
71753;SDS011;59593;51.716;7.016;2023-03-01T10:34:22;9.00;;;6.40;;
71753;SDS011;59593;51.716;7.016;2023-03-01T10:36:51;8.13;;;6.07;;
71753;SDS011;59593;51.716;7.016;2023-03-01T10:39:21;10.13;;;5.93;;
71753;SDS011;59593;51.716;7.016;2023-03-01T10:41:56;9.90;;;6.33;;
71753;SDS011;59593;51.716;7.016;2023-03-01T10:44:46;8.90;;;6.20;;
71753;SDS011;59593;51.716;7.016;2023-03-01T10:47:14;7.90;;;6.13;;
71753;SDS011;59593;51.716;7.016;2023-03-01T10:52:33;8.37;;;6.30;;
71753;SDS011;59593;51.716;7.016;2023-03-01T10:55:02;16.57;;;10.17;;
71753;SDS011;59593;51.716;7.016;2023-03-01T10:57:46;9.03;;;6.70;;
71753;SDS011;59593;51.716;7.016;2023-03-01T11:02:46;8.93;;;6.47;;
71753;SDS011;59593;51.716;7.016;2023-03-01T11:05:25;9.17;;;6.60;;
71753;SDS011;59593;51.716;7.016;2023-03-01T11:08:00;8.13;;;6.30;;
71753;SDS011;59593;51.716;7.016;2023-03-01T11:13:08;9.40;;;6.87;;
71753;SDS011;59593;51.716;7.016;2023-03-01T11:15:40;8.40;;;6.50;;
71753;SDS011;59593;51.716;7.016;2023-03-01T11:18:15;8.27;;;6.40;;
71753;SDS011;59593;51.716;7.016;2023-03-01T11:20:45;8.60;;;6.50;;
71753;SDS011;59593;51.716;7.016;2023-03-01T11:23:16;8.17;;;6.27;;
71753;SDS011;59593;51.716;7.016;2023-03-01T11:25:43;8.43;;;6.60;;
71753;SDS011;59593;51.716;7.016;2023-03-01T11:28:14;9.07;;;6.90;;
71753;SDS011;59593;51.716;7.016;2023-03-01T11:30:47;8.70;;;6.93;;
71753;SDS011;59593;51.716;7.016;2023-03-01T11:38:46;9.83;;;7.07;;
71753;SDS011;59593;51.716;7.016;2023-03-01T11:49:12;9.10;;;7.17;;
71753;SDS011;59593;51.716;7.016;2023-03-01T11:57:35;9.27;;;7.17;;
71753;SDS011;59593;51.716;7.016;2023-03-01T12:08:40;13.57;;;8.80;;
71753;SDS011;59593;51.716;7.016;2023-03-01T12:27:48;10.77;;;7.33;;
71753;SDS011;59593;51.716;7.016;2023-03-01T12:33:06;11.80;;;8.10;;
71753;SDS011;59593;51.716;7.016;2023-03-01T12:35:58;12.03;;;8.43;;
71753;SDS011;59593;51.716;7.016;2023-03-01T12:38:44;11.40;;;7.70;;
71753;SDS011;59593;51.716;7.016;2023-03-01T12:41:48;11.37;;;7.43;;
71753;SDS011;59593;51.716;7.016;2023-03-01T12:55:07;9.47;;;8.10;;
71753;SDS011;59593;51.716;7.016;2023-03-01T13:01:02;11.00;;;8.37;;
71753;SDS011;59593;51.716;7.016;2023-03-01T13:03:58;11.23;;;8.27;;
71753;SDS011;59593;51.716;7.016;2023-03-01T13:06:49;10.70;;;8.53;;
71753;SDS011;59593;51.716;7.016;2023-03-01T13:09:41;11.83;;;9.00;;
71753;SDS011;59593;51.716;7.016;2023-03-01T13:15:43;11.77;;;8.90;;
71753;SDS011;59593;51.716;7.016;2023-03-01T13:18:26;11.67;;;8.80;;
71753;SDS011;59593;51.716;7.016;2023-03-01T13:20:54;11.10;;;8.57;;
71753;SDS011;59593;51.716;7.016;2023-03-01T13:31:07;11.83;;;9.00;;
71753;SDS011;59593;51.716;7.016;2023-03-01T13:36:05;11.93;;;9.40;;
71753;SDS011;59593;51.716;7.016;2023-03-01T13:41:10;11.13;;;8.53;;
71753;SDS011;59593;51.716;7.016;2023-03-01T13:43:38;10.77;;;8.43;;
71753;SDS011;59593;51.716;7.016;2023-03-01T13:46:10;9.63;;;8.27;;
71753;SDS011;59593;51.716;7.016;2023-03-01T13:48:43;11.47;;;9.07;;
71753;SDS011;59593;51.716;7.016;2023-03-01T13:51:15;13.07;;;9.27;;
71753;SDS011;59593;51.716;7.016;2023-03-01T13:53:42;11.80;;;9.37;;
71753;SDS011;59593;51.716;7.016;2023-03-01T13:56:15;8.93;;;8.00;;
71753;SDS011;59593;51.716;7.016;2023-03-01T13:58:49;16.80;;;10.47;;
71753;SDS011;59593;51.716;7.016;2023-03-01T14:01:39;12.90;;;10.15;;
71753;SDS011;59593;51.716;7.016;2023-03-01T14:09:44;9.93;;;8.77;;
71753;SDS011;59593;51.716;7.016;2023-03-01T14:18:08;9.40;;;7.72;;
71753;SDS011;59593;51.716;7.016;2023-03-01T14:20:51;9.38;;;7.78;;
71753;SDS011;59593;51.716;7.016;2023-03-01T14:23:18;9.45;;;7.28;;
71753;SDS011;59593;51.716;7.016;2023-03-01T14:25:48;8.02;;;7.22;;
71753;SDS011;59593;51.716;7.016;2023-03-01T14:30:50;9.35;;;7.82;;
71753;SDS011;59593;51.716;7.016;2023-03-01T14:38:28;8.82;;;7.32;;
71753;SDS011;59593;51.716;7.016;2023-03-01T14:40:57;8.48;;;7.30;;
71753;SDS011;59593;51.716;7.016;2023-03-01T14:43:26;9.18;;;7.65;;
71753;SDS011;59593;51.716;7.016;2023-03-01T14:45:53;8.82;;;7.43;;
71753;SDS011;59593;51.716;7.016;2023-03-01T14:48:22;10.10;;;7.53;;
71753;SDS011;59593;51.716;7.016;2023-03-01T14:50:48;8.65;;;7.35;;
71753;SDS011;59593;51.716;7.016;2023-03-01T14:53:20;9.02;;;7.45;;
71753;SDS011;59593;51.716;7.016;2023-03-01T14:55:50;10.00;;;7.43;;
71753;SDS011;59593;51.716;7.016;2023-03-01T14:58:19;9.52;;;7.13;;
71753;SDS011;59593;51.716;7.016;2023-03-01T15:00:51;8.57;;;7.30;;
71753;SDS011;59593;51.716;7.016;2023-03-01T15:06:08;8.50;;;6.85;;
71753;SDS011;59593;51.716;7.016;2023-03-01T15:08:37;9.07;;;7.20;;
71753;SDS011;59593;51.716;7.016;2023-03-01T15:11:22;8.53;;;6.90;;
71753;SDS011;59593;51.716;7.016;2023-03-01T15:13:56;9.60;;;7.50;;
71753;SDS011;59593;51.716;7.016;2023-03-01T15:16:23;8.27;;;6.63;;
71753;SDS011;59593;51.716;7.016;2023-03-01T15:18:55;10.00;;;7.37;;
71753;SDS011;59593;51.716;7.016;2023-03-01T15:21:25;10.83;;;7.20;;
71753;SDS011;59593;51.716;7.016;2023-03-01T15:23:57;8.00;;;6.87;;
71753;SDS011;59593;51.716;7.016;2023-03-01T15:26:44;10.30;;;7.83;;
71753;SDS011;59593;51.716;7.016;2023-03-01T15:29:29;10.20;;;6.93;;
71753;SDS011;59593;51.716;7.016;2023-03-01T15:32:02;10.67;;;7.20;;
71753;SDS011;59593;51.716;7.016;2023-03-01T15:34:34;8.83;;;6.83;;
71753;SDS011;59593;51.716;7.016;2023-03-01T15:37:05;11.23;;;6.70;;
71753;SDS011;59593;51.716;7.016;2023-03-01T15:39:56;9.43;;;7.13;;
71753;SDS011;59593;51.716;7.016;2023-03-01T15:45:06;7.97;;;6.10;;
71753;SDS011;59593;51.716;7.016;2023-03-01T15:47:33;8.20;;;6.17;;
71753;SDS011;59593;51.716;7.016;2023-03-01T15:50:00;11.07;;;7.13;;
71753;SDS011;59593;51.716;7.016;2023-03-01T15:52:32;11.30;;;7.70;;
71753;SDS011;59593;51.716;7.016;2023-03-01T15:55:05;11.53;;;6.60;;
71753;SDS011;59593;51.716;7.016;2023-03-01T15:57:40;8.33;;;6.57;;
71753;SDS011;59593;51.716;7.016;2023-03-01T16:00:08;8.87;;;6.30;;
71753;SDS011;59593;51.716;7.016;2023-03-01T16:02:38;9.27;;;6.10;;
71753;SDS011;59593;51.716;7.016;2023-03-01T16:05:05;7.93;;;5.97;;
71753;SDS011;59593;51.716;7.016;2023-03-01T16:07:41;10.10;;;6.23;;
71753;SDS011;59593;51.716;7.016;2023-03-01T16:10:06;38.40;;;8.03;;
71753;SDS011;59593;51.716;7.016;2023-03-01T16:12:35;9.07;;;6.50;;
71753;SDS011;59593;51.716;7.016;2023-03-01T16:15:01;8.60;;;6.33;;
71753;SDS011;59593;51.716;7.016;2023-03-01T16:17:27;7.93;;;6.03;;
71753;SDS011;59593;51.716;7.016;2023-03-01T16:19:53;10.73;;;6.70;;
71753;SDS011;59593;51.716;7.016;2023-03-01T16:22:18;9.67;;;6.93;;
71753;SDS011;59593;51.716;7.016;2023-03-01T16:24:49;9.40;;;6.93;;
71753;SDS011;59593;51.716;7.016;2023-03-01T16:27:15;9.03;;;6.27;;
71753;SDS011;59593;51.716;7.016;2023-03-01T16:29:41;8.67;;;6.40;;
71753;SDS011;59593;51.716;7.016;2023-03-01T16:32:06;8.37;;;6.33;;
71753;SDS011;59593;51.716;7.016;2023-03-01T16:34:32;9.53;;;6.53;;
71753;SDS011;59593;51.716;7.016;2023-03-01T16:36:58;9.43;;;6.37;;
71753;SDS011;59593;51.716;7.016;2023-03-01T16:39:23;9.07;;;6.13;;
71753;SDS011;59593;51.716;7.016;2023-03-01T16:41:49;8.80;;;6.30;;
71753;SDS011;59593;51.716;7.016;2023-03-01T16:44:15;9.43;;;6.93;;
71753;SDS011;59593;51.716;7.016;2023-03-01T16:46:41;8.20;;;6.57;;
71753;SDS011;59593;51.716;7.016;2023-03-01T16:49:08;8.73;;;6.70;;
71753;SDS011;59593;51.716;7.016;2023-03-01T16:51:36;8.50;;;6.33;;
71753;SDS011;59593;51.716;7.016;2023-03-01T16:54:05;8.83;;;7.07;;
71753;SDS011;59593;51.716;7.016;2023-03-01T16:56:31;9.20;;;7.30;;
71753;SDS011;59593;51.716;7.016;2023-03-01T16:58:59;8.87;;;7.03;;
71753;SDS011;59593;51.716;7.016;2023-03-01T17:01:24;9.97;;;7.83;;
71753;SDS011;59593;51.716;7.016;2023-03-01T17:03:51;11.47;;;8.73;;
71753;SDS011;59593;51.716;7.016;2023-03-01T17:06:18;11.20;;;9.07;;
71753;SDS011;59593;51.716;7.016;2023-03-01T17:08:51;12.93;;;9.10;;
71753;SDS011;59593;51.716;7.016;2023-03-01T17:11:18;12.17;;;8.63;;
71753;SDS011;59593;51.716;7.016;2023-03-01T17:13:47;17.77;;;14.30;;
71753;SDS011;59593;51.716;7.016;2023-03-01T17:16:17;14.47;;;10.30;;
71753;SDS011;59593;51.716;7.016;2023-03-01T17:18:44;11.30;;;9.10;;
71753;SDS011;59593;51.716;7.016;2023-03-01T17:21:10;11.20;;;9.30;;
71753;SDS011;59593;51.716;7.016;2023-03-01T17:23:38;11.67;;;9.77;;
71753;SDS011;59593;51.716;7.016;2023-03-01T17:26:05;12.60;;;9.63;;
71753;SDS011;59593;51.716;7.016;2023-03-01T17:28:35;12.17;;;9.60;;
71753;SDS011;59593;51.716;7.016;2023-03-01T17:31:02;17.40;;;13.10;;
71753;SDS011;59593;51.716;7.016;2023-03-01T17:33:29;17.30;;;13.40;;